YCIG weather

Corrigin Airport
Western Australia, Australia

Public forecast

Using degrees Celsius for public forecast. Weather courtesy of forecast.io.

METAR (pilot weather report)

Closest report is Perth International Airport, 97.0 nm (179.6 km) WNW. Retrieved 2019/03/26 21:30 UTC (29 minutes ago):

YPPH 262130Z 05004KT CAVOK 15/08 Q1014 NOSIG

TAF (pilot weather forecast)

Closest forecast is Perth International Airport, 97.0 nm (179.6 km) WNW. Retrieved 2019/03/26 18:00 UTC (4 hours ago):

TAF YPPH 261711Z 2618/2724 VRB05KT CAVOK FM270500 23013KT CAVOK FM271500 15010KT CAVOK